createdAt,value
2022-09-22T00:01:08.156Z,10.43
2022-09-22T00:03:43.473Z,10.38
2022-09-22T00:06:22.110Z,10.32
2022-09-22T00:08:54.280Z,10.19
2022-09-22T00:11:29.159Z,10.14
2022-09-22T00:14:00.980Z,10.11
2022-09-22T00:16:37.458Z,10.11
2022-09-22T00:19:09.287Z,10.11
2022-09-22T00:21:36.669Z,10.10
2022-09-22T00:24:07.128Z,10.10
2022-09-22T00:26:35.978Z,10.08
2022-09-22T00:29:03.523Z,10.06
2022-09-22T00:31:30.627Z,10.02
2022-09-22T00:33:57.699Z,9.97
2022-09-22T00:36:26.510Z,9.99
2022-09-22T00:38:55.535Z,9.98
2022-09-22T00:41:25.645Z,9.97
2022-09-22T00:44:18.660Z,9.97
2022-09-22T00:46:50.420Z,9.98
2022-09-22T00:49:21.732Z,9.96
2022-09-22T00:51:48.757Z,10.03
2022-09-22T00:54:19.013Z,10.06
2022-09-22T00:56:56.098Z,10.05
2022-09-22T00:59:26.174Z,10.04
2022-09-22T01:01:53.260Z,10.00
2022-09-22T01:04:19.924Z,9.97
2022-09-22T01:06:47.200Z,9.95
2022-09-22T01:09:14.587Z,9.97
2022-09-22T01:11:42.421Z,10.00
2022-09-22T01:14:34.825Z,10.08
2022-09-22T01:17:38.807Z,10.20
2022-09-22T01:20:12.414Z,10.28
2022-09-22T01:23:05.221Z,10.33
2022-09-22T01:26:00.343Z,10.37
2022-09-22T01:28:45.485Z,10.36
2022-09-22T01:31:12.426Z,10.36
2022-09-22T01:33:54.440Z,10.34
2022-09-22T01:36:28.022Z,10.36
2022-09-22T01:39:01.642Z,10.39
2022-09-22T01:41:51.987Z,10.38
2022-09-22T01:44:39.232Z,10.36
2022-09-22T01:47:13.471Z,10.30
2022-09-22T01:49:46.018Z,10.19
2022-09-22T01:52:21.020Z,10.09
2022-09-22T01:54:55.434Z,10.02
2022-09-22T01:57:30.832Z,9.99
2022-09-22T02:00:04.050Z,9.96
2022-09-22T02:03:00.358Z,9.93
2022-09-22T02:06:02.636Z,9.92
2022-09-22T02:08:37.946Z,9.88
2022-09-22T02:11:11.409Z,9.86
2022-09-22T02:13:38.390Z,9.84
2022-09-22T02:16:06.019Z,9.82
2022-09-22T02:18:50.326Z,9.80
2022-09-22T02:21:18.247Z,9.88
2022-09-22T02:23:46.616Z,9.91
2022-09-22T02:26:17.816Z,9.93
2022-09-22T02:28:45.399Z,9.93
2022-09-22T02:31:21.360Z,9.92
2022-09-22T02:33:49.208Z,9.89
2022-09-22T02:36:46.321Z,9.83
2022-09-22T02:39:29.254Z,9.79
2022-09-22T02:42:32.362Z,9.79
2022-09-22T02:45:22.306Z,9.82
2022-09-22T02:47:57.574Z,9.83
2022-09-22T02:50:27.216Z,9.85
2022-09-22T02:53:01.491Z,9.86
2022-09-22T02:55:28.725Z,9.90
2022-09-22T02:57:55.555Z,9.93
2022-09-22T03:00:22.667Z,9.93
2022-09-22T03:02:49.454Z,9.93
2022-09-22T03:05:16.205Z,9.93
2022-09-22T03:07:42.809Z,9.91
2022-09-22T03:10:10.572Z,9.92
2022-09-22T03:13:02.569Z,9.98
2022-09-22T03:15:29.448Z,10.01
2022-09-22T03:17:56.115Z,10.03
2022-09-22T03:20:22.764Z,10.05
2022-09-22T03:22:49.652Z,10.04
2022-09-22T03:25:16.322Z,10.07
2022-09-22T03:27:42.907Z,10.14
2022-09-22T03:30:10.339Z,10.23
2022-09-22T03:32:37.284Z,10.32
2022-09-22T03:35:04.734Z,10.43
2022-09-22T03:37:32.751Z,10.53
2022-09-22T03:39:59.375Z,10.61
2022-09-22T03:42:26.070Z,10.68
2022-09-22T03:44:52.999Z,10.72
2022-09-22T03:47:19.900Z,10.76
2022-09-22T03:49:46.480Z,10.83
2022-09-22T03:52:13.219Z,10.87
2022-09-22T03:54:40.137Z,10.93
2022-09-22T03:57:06.809Z,10.97
2022-09-22T03:59:34.043Z,11.00
2022-09-22T04:02:02.580Z,11.05
2022-09-22T04:04:29.253Z,10.97
2022-09-22T04:06:56.051Z,10.91
2022-09-22T04:09:22.811Z,10.85
2022-09-22T04:11:49.481Z,10.79
2022-09-22T04:14:16.282Z,10.84
2022-09-22T04:16:43.180Z,10.85
2022-09-22T04:19:10.404Z,10.80
2022-09-22T04:21:37.336Z,10.78
2022-09-22T04:24:04.381Z,10.85
2022-09-22T04:26:30.959Z,10.91
2022-09-22T04:28:57.863Z,10.97
2022-09-22T04:31:24.559Z,10.96
2022-09-22T04:33:51.187Z,11.00
2022-09-22T04:36:17.957Z,11.06
2022-09-22T04:38:44.588Z,11.06
2022-09-22T04:41:11.137Z,11.05
2022-09-22T04:43:37.914Z,11.00
2022-09-22T04:46:04.904Z,10.90
2022-09-22T04:48:31.508Z,10.85
2022-09-22T04:50:58.445Z,10.80
2022-09-22T04:53:25.295Z,10.72
2022-09-22T04:55:52.153Z,10.66
2022-09-22T04:58:18.980Z,10.60
2022-09-22T05:00:45.541Z,10.54
2022-09-22T05:03:13.103Z,10.44
2022-09-22T05:05:40.325Z,10.36
2022-09-22T05:08:07.701Z,10.30
2022-09-22T05:10:35.508Z,10.24
2022-09-22T05:13:02.408Z,10.19
2022-09-22T05:15:32.603Z,10.18
2022-09-22T05:17:59.736Z,10.17
2022-09-22T05:20:27.263Z,10.18
2022-09-22T05:22:54.871Z,10.16
2022-09-22T05:25:21.933Z,10.17
2022-09-22T05:27:54.079Z,10.21
2022-09-22T05:30:23.999Z,10.28
2022-09-22T05:32:51.026Z,10.32
2022-09-22T05:35:21.310Z,10.34
2022-09-22T05:37:49.746Z,10.36
2022-09-22T05:40:17.208Z,10.39
2022-09-22T05:42:49.129Z,10.40
2022-09-22T05:45:16.706Z,10.40
2022-09-22T05:47:43.479Z,10.42
2022-09-22T05:50:12.245Z,10.44
2022-09-22T05:52:39.035Z,10.44
2022-09-22T05:55:07.158Z,10.43
2022-09-22T05:57:34.221Z,10.44
2022-09-22T06:00:00.983Z,10.42
2022-09-22T06:02:27.726Z,10.40
2022-09-22T06:04:54.699Z,10.38
2022-09-22T06:07:22.611Z,10.41
2022-09-22T06:09:49.234Z,10.39
2022-09-22T06:12:17.121Z,10.34
2022-09-22T06:14:43.875Z,10.39
2022-09-22T06:17:11.911Z,10.43
2022-09-22T06:19:39.743Z,10.43
2022-09-22T06:22:06.834Z,10.42
2022-09-22T06:24:33.402Z,10.39
2022-09-22T06:27:00.407Z,10.38
2022-09-22T06:29:26.993Z,10.40
2022-09-22T06:31:53.946Z,10.42
2022-09-22T06:34:20.836Z,10.38
2022-09-22T06:36:47.381Z,10.40
2022-09-22T06:39:14.361Z,10.38
2022-09-22T06:41:41.118Z,10.39
2022-09-22T06:44:09.099Z,10.39
2022-09-22T06:46:35.787Z,10.39
2022-09-22T06:49:02.871Z,10.40
2022-09-22T06:51:32.925Z,10.44
2022-09-22T06:54:03.079Z,10.48
2022-09-22T06:56:36.996Z,10.52
2022-09-22T06:59:11.173Z,10.56
2022-09-22T07:01:38.520Z,10.60
2022-09-22T07:04:05.457Z,10.62
2022-09-22T07:06:32.293Z,10.61
2022-09-22T07:08:58.961Z,10.66
2022-09-22T07:11:25.656Z,10.69
2022-09-22T07:13:54.140Z,10.77
2022-09-22T07:16:25.714Z,10.86
2022-09-22T07:18:54.573Z,10.94
2022-09-22T07:21:24.722Z,11.04
2022-09-22T07:23:55.357Z,11.17
2022-09-22T07:26:29.016Z,11.30
2022-09-22T07:28:58.572Z,11.41
2022-09-22T07:31:29.052Z,11.53
2022-09-22T07:33:56.743Z,11.59
2022-09-22T07:36:28.677Z,11.67
2022-09-22T07:38:57.601Z,11.71
2022-09-22T07:41:29.304Z,11.73
2022-09-22T07:44:18.532Z,11.68
2022-09-22T07:46:46.074Z,11.66
2022-09-22T07:49:15.202Z,11.65
2022-09-22T07:51:42.182Z,11.64
2022-09-22T07:54:09.248Z,11.68
2022-09-22T07:56:40.197Z,11.73
2022-09-22T07:59:10.515Z,11.76
2022-09-22T08:01:39.698Z,11.82
2022-09-22T08:04:06.442Z,11.89
2022-09-22T08:06:35.215Z,11.88
2022-09-22T08:09:03.986Z,11.85
2022-09-22T08:11:31.482Z,11.86
2022-09-22T08:14:01.567Z,11.90
2022-09-22T08:16:33.898Z,11.87
2022-09-22T08:19:03.851Z,11.85
2022-09-22T08:21:35.549Z,11.88
2022-09-22T08:24:02.853Z,11.89
2022-09-22T08:26:29.711Z,11.85
2022-09-22T08:28:57.434Z,11.89
2022-09-22T08:31:26.807Z,11.98
2022-09-22T08:33:55.515Z,12.01
2022-09-22T08:36:25.156Z,11.97
2022-09-22T08:38:51.859Z,11.98
2022-09-22T08:41:38.214Z,12.02
2022-09-22T08:44:10.777Z,12.13
2022-09-22T08:46:41.472Z,12.26
2022-09-22T08:49:26.412Z,12.32
2022-09-22T08:52:19.455Z,12.38
2022-09-22T08:54:46.280Z,12.43
2022-09-22T08:57:41.327Z,12.46
2022-09-22T09:00:17.438Z,12.47
2022-09-22T09:03:10.026Z,12.42
2022-09-22T09:06:05.481Z,12.40
2022-09-22T09:08:50.677Z,12.38
2022-09-22T09:11:34.025Z,12.29
2022-09-22T09:14:17.639Z,12.23
2022-09-22T09:16:55.876Z,12.28
2022-09-22T09:19:33.956Z,12.36
2022-09-22T09:22:08.122Z,12.49
2022-09-22T09:27:29.701Z,12.79
2022-09-22T09:30:20.459Z,12.95
2022-09-22T09:32:56.715Z,13.18
2022-09-22T09:35:44.555Z,13.31
2022-09-22T09:38:29.863Z,13.51
2022-09-22T09:41:14.783Z,13.67
2022-09-22T09:43:43.160Z,13.70
2022-09-22T09:46:33.269Z,13.78
2022-09-22T09:49:14.467Z,13.87
2022-09-22T09:51:45.307Z,13.98
2022-09-22T09:54:17.019Z,14.12
2022-09-22T09:57:14.050Z,14.23
2022-09-22T10:00:04.219Z,14.24
2022-09-22T10:02:33.151Z,14.25
2022-09-22T10:05:07.634Z,14.24
2022-09-22T10:07:47.893Z,14.29
2022-09-22T10:10:37.201Z,14.40
2022-09-22T10:13:04.880Z,14.37
2022-09-22T10:15:40.653Z,14.23
2022-09-22T10:18:34.000Z,14.18
2022-09-22T10:21:16.781Z,14.16
2022-09-22T10:23:52.422Z,14.08
2022-09-22T10:26:30.642Z,14.01
2022-09-22T10:29:12.593Z,13.86
2022-09-22T10:31:41.768Z,13.72
2022-09-22T10:34:32.525Z,13.58
2022-09-22T10:37:00.918Z,13.48
2022-09-22T10:39:52.640Z,13.48
2022-09-22T10:42:36.410Z,13.52
2022-09-22T10:45:07.508Z,13.59
2022-09-22T10:48:21.041Z,13.69
2022-09-22T10:50:57.251Z,13.77
2022-09-22T10:53:41.064Z,13.82
2022-09-22T10:56:18.287Z,13.87
2022-09-22T10:59:14.942Z,13.93
2022-09-22T11:01:51.529Z,14.06
2022-09-22T11:04:41.664Z,14.19
2022-09-22T11:07:35.905Z,14.41
2022-09-22T11:10:35.137Z,14.59
2022-09-22T11:13:40.526Z,14.68
2022-09-22T11:16:15.950Z,14.68
2022-09-22T11:19:20.158Z,14.74
2022-09-22T11:22:07.918Z,14.81
2022-09-22T11:25:15.910Z,14.68
2022-09-22T11:27:48.281Z,14.62
2022-09-22T11:30:20.766Z,14.63
2022-09-22T11:33:05.882Z,14.69
2022-09-22T11:35:50.701Z,14.68
2022-09-22T11:38:29.220Z,14.46
2022-09-22T11:41:20.565Z,14.27
2022-09-22T11:44:22.039Z,14.17
2022-09-22T11:47:06.946Z,14.24
2022-09-22T11:49:52.161Z,14.36
2022-09-22T11:52:24.868Z,14.52
2022-09-22T11:55:18.483Z,14.64
2022-09-22T11:57:51.237Z,14.76
2022-09-22T12:00:21.326Z,14.88
2022-09-22T12:02:55.122Z,14.90
2022-09-22T12:05:28.093Z,14.85
2022-09-22T12:08:02.834Z,14.84
2022-09-22T12:10:35.730Z,14.90
2022-09-22T12:13:05.357Z,15.04
2022-09-22T12:15:58.985Z,15.14
2022-09-22T12:18:47.682Z,15.25
2022-09-22T12:21:16.975Z,15.26
2022-09-22T12:23:47.715Z,15.24
2022-09-22T12:26:38.216Z,15.26
2022-09-22T12:29:14.415Z,15.38
2022-09-22T12:31:44.511Z,15.49
2022-09-22T12:34:34.413Z,15.59
2022-09-22T12:37:22.708Z,15.69
2022-09-22T12:39:49.821Z,15.70
2022-09-22T12:42:36.082Z,15.63
2022-09-22T12:45:33.170Z,15.73
2022-09-22T12:48:03.893Z,15.91
2022-09-22T12:50:40.010Z,15.98
2022-09-22T12:53:30.059Z,16.07
2022-09-22T12:55:57.712Z,16.08
2022-09-22T12:58:30.504Z,16.09
2022-09-22T13:01:32.190Z,16.09
2022-09-22T13:04:13.255Z,16.11
2022-09-22T13:06:39.857Z,16.05
2022-09-22T13:09:06.358Z,15.93
2022-09-22T13:12:11.675Z,15.85
2022-09-22T13:14:59.580Z,15.88
2022-09-22T13:17:50.694Z,15.93
2022-09-22T13:20:17.450Z,16.03
2022-09-22T13:22:44.428Z,16.10
2022-09-22T13:25:32.052Z,16.03
2022-09-22T13:28:06.352Z,16.05
2022-09-22T13:30:33.650Z,16.13
2022-09-22T13:33:00.971Z,16.19
2022-09-22T13:35:31.704Z,16.22
2022-09-22T13:37:59.774Z,16.23
2022-09-22T13:40:29.832Z,16.12
2022-09-22T13:43:00.782Z,15.90
2022-09-22T13:45:28.057Z,15.77
2022-09-22T13:48:03.661Z,15.67
2022-09-22T13:50:37.959Z,15.69
2022-09-22T13:53:07.348Z,15.63
2022-09-22T13:55:37.505Z,15.50
2022-09-22T13:58:08.813Z,15.40
2022-09-22T14:01:11.436Z,15.31
2022-09-22T14:03:38.642Z,15.08
2022-09-22T14:06:11.899Z,14.86
2022-09-22T14:08:38.952Z,14.71
2022-09-22T14:11:12.022Z,14.64
2022-09-22T14:14:00.996Z,14.52
2022-09-22T14:16:40.459Z,14.44
2022-09-22T14:19:34.072Z,14.36
2022-09-22T14:22:06.850Z,14.34
2022-09-22T14:24:37.763Z,14.35
2022-09-22T14:27:07.145Z,14.37
2022-09-22T14:29:37.737Z,14.47
2022-09-22T14:32:11.836Z,14.55
2022-09-22T14:34:40.388Z,14.51
2022-09-22T14:37:30.959Z,14.51
2022-09-22T14:40:01.275Z,14.53
2022-09-22T14:42:30.702Z,14.54
2022-09-22T14:45:09.374Z,14.52
2022-09-22T14:47:40.891Z,14.56
2022-09-22T14:50:19.414Z,14.63
2022-09-22T14:52:55.288Z,14.75
2022-09-22T14:55:29.359Z,14.81
2022-09-22T14:57:57.031Z,14.50
2022-09-22T15:00:42.653Z,14.02
2022-09-22T15:03:29.541Z,13.54
2022-09-22T15:06:07.368Z,13.21
2022-09-22T15:08:34.381Z,12.91
2022-09-22T15:11:01.593Z,12.56
2022-09-22T15:13:37.772Z,12.32
2022-09-22T15:16:05.211Z,12.21
2022-09-22T15:18:31.892Z,12.11
2022-09-22T15:21:18.933Z,11.96
2022-09-22T15:23:47.925Z,11.92
2022-09-22T15:26:24.964Z,11.89
2022-09-22T15:28:54.394Z,11.88
2022-09-22T15:31:28.692Z,11.88
2022-09-22T15:33:56.484Z,11.88
2022-09-22T15:36:25.700Z,11.94
2022-09-22T15:39:07.580Z,11.97
2022-09-22T15:41:34.934Z,11.94
2022-09-22T15:44:02.828Z,11.88
2022-09-22T15:46:34.510Z,11.83
2022-09-22T15:49:10.406Z,11.79
2022-09-22T15:51:37.085Z,11.76
2022-09-22T15:54:12.884Z,11.71
2022-09-22T15:56:40.512Z,11.68
2022-09-22T15:59:08.338Z,11.70
2022-09-22T16:01:36.029Z,11.72
2022-09-22T16:04:03.166Z,11.68
2022-09-22T16:06:29.773Z,11.69
2022-09-22T16:08:58.529Z,11.70
2022-09-22T16:11:30.022Z,11.66
2022-09-22T16:13:58.946Z,11.53
2022-09-22T16:16:28.729Z,11.47
2022-09-22T16:18:56.602Z,11.42
2022-09-22T16:21:31.226Z,11.39
2022-09-22T16:24:03.609Z,11.40
2022-09-22T16:26:31.829Z,11.45
2022-09-22T16:28:59.335Z,11.43
2022-09-22T16:31:27.395Z,11.36
2022-09-22T16:33:55.557Z,11.28
2022-09-22T16:36:24.166Z,11.20
2022-09-22T16:38:50.980Z,11.05
2022-09-22T16:41:22.934Z,10.98
2022-09-22T16:43:50.135Z,11.04
2022-09-22T16:46:26.972Z,11.05
2022-09-22T16:49:00.835Z,10.99
2022-09-22T16:51:28.479Z,10.92
2022-09-22T16:53:55.428Z,10.85
2022-09-22T16:56:24.672Z,10.80
2022-09-22T16:58:52.268Z,10.73
2022-09-22T17:01:20.321Z,10.72
2022-09-22T17:03:50.150Z,10.63
2022-09-22T17:06:23.640Z,10.61
2022-09-22T17:08:53.753Z,10.61
2022-09-22T17:11:24.811Z,10.66
2022-09-22T17:13:51.623Z,10.73
2022-09-22T17:16:24.825Z,10.81
2022-09-22T17:18:53.532Z,10.86
2022-09-22T17:21:24.581Z,10.96
2022-09-22T17:23:54.676Z,11.06
2022-09-22T17:26:21.358Z,11.14
2022-09-22T17:28:50.614Z,11.10
2022-09-22T17:31:17.242Z,11.08
2022-09-22T17:33:48.909Z,11.07
2022-09-22T17:36:22.572Z,10.95
2022-09-22T17:38:51.547Z,10.88
2022-09-22T17:41:24.743Z,10.74
2022-09-22T17:43:57.264Z,10.75
2022-09-22T17:46:26.045Z,10.79
2022-09-22T17:49:11.766Z,10.76
2022-09-22T17:52:01.304Z,10.75
2022-09-22T17:54:48.049Z,10.72
2022-09-22T17:57:21.267Z,10.64
2022-09-22T17:59:48.530Z,10.60
2022-09-22T18:02:18.237Z,10.65
2022-09-22T18:04:46.719Z,10.69
2022-09-22T18:07:25.295Z,10.61
2022-09-22T18:09:54.631Z,10.63
2022-09-22T18:12:25.311Z,10.62
2022-09-22T18:14:55.568Z,10.62
2022-09-22T18:17:27.149Z,10.60
2022-09-22T18:19:56.133Z,10.65
2022-09-22T18:22:25.416Z,10.57
2022-09-22T18:24:56.751Z,10.52
2022-09-22T18:27:28.278Z,10.49
2022-09-22T18:29:58.636Z,10.43
2022-09-22T18:32:28.319Z,10.45
2022-09-22T18:34:55.461Z,10.54
2022-09-22T18:37:24.635Z,10.61
2022-09-22T18:39:51.506Z,10.63
2022-09-22T18:42:19.317Z,10.58
2022-09-22T18:44:47.293Z,10.48
2022-09-22T18:47:17.928Z,10.39
2022-09-22T18:49:48.433Z,10.29
2022-09-22T18:52:23.081Z,10.19
2022-09-22T18:54:53.398Z,10.09
2022-09-22T18:57:22.954Z,10.06
2022-09-22T18:59:51.175Z,10.05
2022-09-22T19:02:23.040Z,10.08
2022-09-22T19:04:51.695Z,10.07
2022-09-22T19:07:41.565Z,10.08
2022-09-22T19:10:18.873Z,10.16
2022-09-22T19:12:45.826Z,10.17
2022-09-22T19:15:16.822Z,10.11
2022-09-22T19:17:46.303Z,10.06
2022-09-22T19:20:17.310Z,10.01
2022-09-22T19:22:45.254Z,9.91
2022-09-22T19:25:12.599Z,9.90
2022-09-22T19:27:42.511Z,9.93
2022-09-22T19:30:10.287Z,9.99
2022-09-22T19:32:37.646Z,9.97
2022-09-22T19:35:06.717Z,9.95
2022-09-22T19:37:33.422Z,9.84
2022-09-22T19:40:00.251Z,9.81
2022-09-22T19:42:28.551Z,9.77
2022-09-22T19:44:55.829Z,9.72
2022-09-22T19:47:23.212Z,9.67
2022-09-22T19:49:50.017Z,9.64
2022-09-22T19:52:17.038Z,9.70
2022-09-22T19:54:45.730Z,9.71
2022-09-22T19:57:13.310Z,9.69
2022-09-22T19:59:40.498Z,9.60
2022-09-22T20:02:16.162Z,9.59
2022-09-22T20:04:42.984Z,9.63
2022-09-22T20:07:11.072Z,9.66
2022-09-22T20:09:37.827Z,9.71
2022-09-22T20:12:05.769Z,9.71
2022-09-22T20:14:32.898Z,9.67
2022-09-22T20:17:03.229Z,9.60
2022-09-22T20:19:32.422Z,9.55
2022-09-22T20:22:28.216Z,9.52
2022-09-22T20:24:58.761Z,9.55
2022-09-22T20:27:31.708Z,9.60
2022-09-22T20:29:59.085Z,9.62
2022-09-22T20:32:28.531Z,9.63
2022-09-22T20:34:55.960Z,9.54
2022-09-22T20:37:24.631Z,9.47
2022-09-22T20:39:51.833Z,9.46
2022-09-22T20:42:18.553Z,9.44
2022-09-22T20:44:45.536Z,9.42
2022-09-22T20:47:17.844Z,9.40
2022-09-22T20:49:50.645Z,9.40
2022-09-22T20:52:20.142Z,9.28
2022-09-22T20:54:47.461Z,9.23
2022-09-22T20:57:14.442Z,9.21
2022-09-22T20:59:44.009Z,9.19
2022-09-22T21:02:12.620Z,9.09
2022-09-22T21:04:39.460Z,8.99
2022-09-22T21:07:06.117Z,8.93
2022-09-22T21:09:51.925Z,8.86
2022-09-22T21:12:18.812Z,8.71
2022-09-22T21:14:45.990Z,8.57
2022-09-22T21:17:13.930Z,8.42
2022-09-22T21:19:40.943Z,8.41
2022-09-22T21:22:07.881Z,8.31
2022-09-22T21:24:34.766Z,8.27
2022-09-22T21:27:01.462Z,8.24
2022-09-22T21:29:29.619Z,8.21
2022-09-22T21:31:57.987Z,8.12
2022-09-22T21:34:26.134Z,8.11
2022-09-22T21:36:52.790Z,8.02
2022-09-22T21:39:19.493Z,7.97
2022-09-22T21:41:46.199Z,7.87
2022-09-22T21:44:13.060Z,7.85
2022-09-22T21:46:42.768Z,7.82
2022-09-22T21:49:09.989Z,7.85
2022-09-22T21:51:42.208Z,7.89
2022-09-22T21:54:14.365Z,7.94
2022-09-22T21:56:41.402Z,7.93
2022-09-22T21:59:08.494Z,7.86
2022-09-22T22:01:37.694Z,7.76
2022-09-22T22:04:08.938Z,7.67
2022-09-22T22:06:43.141Z,7.63
2022-09-22T22:09:19.991Z,7.58
2022-09-22T22:11:55.846Z,7.52
2022-09-22T22:14:24.520Z,7.49
2022-09-22T22:16:55.764Z,7.47
2022-09-22T22:19:26.041Z,7.41
2022-09-22T22:21:53.931Z,7.36
2022-09-22T22:24:23.144Z,7.35
2022-09-22T22:26:54.858Z,7.35
2022-09-22T22:29:22.950Z,7.38
2022-09-22T22:31:50.836Z,7.41
2022-09-22T22:34:19.423Z,7.39
2022-09-22T22:36:46.469Z,7.36
2022-09-22T22:39:13.304Z,7.36
2022-09-22T22:41:40.927Z,7.35
2022-09-22T22:44:08.797Z,7.32
2022-09-22T22:46:36.206Z,7.28
2022-09-22T22:49:03.447Z,7.25
2022-09-22T22:51:30.186Z,7.26
2022-09-22T22:53:56.855Z,7.28
2022-09-22T22:56:25.929Z,7.23
2022-09-22T22:58:53.231Z,7.19
2022-09-22T23:01:25.457Z,7.18
2022-09-22T23:03:54.616Z,7.22
2022-09-22T23:06:24.178Z,7.20
2022-09-22T23:08:51.712Z,7.15
2022-09-22T23:11:24.208Z,7.12
2022-09-22T23:13:53.678Z,7.12
2022-09-22T23:16:23.922Z,7.11
2022-09-22T23:18:52.029Z,7.07
2022-09-22T23:21:20.586Z,6.98
2022-09-22T23:23:48.300Z,6.93
2022-09-22T23:26:16.269Z,6.92
2022-09-22T23:28:43.649Z,6.89
2022-09-22T23:31:16.438Z,6.89
2022-09-22T23:33:45.528Z,6.93
2022-09-22T23:36:20.911Z,6.98
2022-09-22T23:38:47.924Z,6.97
2022-09-22T23:41:14.923Z,6.99
2022-09-22T23:43:41.597Z,6.98
2022-09-22T23:46:08.299Z,7.02
2022-09-22T23:48:35.497Z,7.11
2022-09-22T23:51:02.800Z,7.19
2022-09-22T23:53:35.687Z,7.28
2022-09-22T23:56:03.981Z,7.35
2022-09-22T23:58:30.997Z,7.42
